Terminal Aerodrome Forecast
Issued by NWS Brownsville, TX

Home | Current Version | Previous Version | Text Only | Print | Product List | Glossary On
Versions: 1 2 3 4 5 6 7 8 9 10 11 12 13 14 15 16 17 18 19
653
FTUS44 KBRO 242320
TAFHRL
TAF
KHRL 242320Z 2500/2524 10015KT P6SM BKN035
     FM250300 10005KT P6SM SCT030
     FM251500 13008KT P6SM VCSH SCT030 BKN040 PROB30 2518/2524
      VRB15G30KT 4SM TSRA SCT020CB BKN030=

USA.gov is the U.S. government's official web portal to all federal, state and local government web resources and services.